Time;durP1;ratioP1;P1;durP2;ratioP2;P2;SDS_P1;SDS_P2;PMS_P1;PMS_P2;Temp;Humidity;BMP_temperature;BMP_pressure;BME280_temperature;BME280_humidity;BME280_pressure;Samples;Min_cycle;Max_cycle;Signal;HPM_P1;HPM_P2
2022/09/29 00:00:52;;;;;;;2.13;1.92;;;;;;;6.34;100.00;96847.00;15307298;19;20026;-85
2022/09/29 00:06:19;;;;;;;2.17;1.98;;;;;;;6.29;100.00;96857.41;15285609;19;20025;-83
2022/09/29 00:11:46;;;;;;;2.20;2.00;;;;;;;6.25;100.00;96861.41;15292088;19;20010;-85
2022/09/29 00:17:11;;;;;;;2.10;1.90;;;;;;;6.24;100.00;96859.75;15291709;19;20350;-84
2022/09/29 00:22:40;;;;;;;2.40;2.20;;;;;;;6.16;100.00;96858.78;15289340;19;20071;-86
2022/09/29 00:28:07;;;;;;;2.50;2.30;;;;;;;6.10;100.00;96854.09;15290664;19;20015;-84
2022/09/29 00:33:32;;;;;;;2.42;2.20;;;;;;;6.03;100.00;96860.31;15309355;19;20009;-84
2022/09/29 00:38:58;;;;;;;2.83;2.45;;;;;;;5.93;100.00;96860.50;15306419;19;20037;-84
2022/09/29 00:44:52;;;;;;;2.15;2.05;;;;;;;5.84;100.00;96862.34;15302680;19;20002;-83
2022/09/29 00:50:24;;;;;;;2.90;2.30;;;;;;;5.75;100.00;96855.34;15302847;19;20023;-82
2022/09/29 00:55:52;;;;;;;2.28;2.15;;;;;;;5.67;100.00;96859.69;15301278;19;20086;-84
2022/09/29 01:01:17;;;;;;;2.97;2.15;;;;;;;5.60;100.00;96860.50;15305871;19;20026;-84
2022/09/29 01:06:47;;;;;;;3.25;2.20;;;;;;;5.50;100.00;96861.53;15299965;19;20027;-85
2022/09/29 01:12:12;;;;;;;2.85;2.50;;;;;;;5.41;100.00;96859.88;15309233;19;20023;-84
2022/09/29 01:17:36;;;;;;;2.65;2.45;;;;;;;5.35;100.00;96868.56;15310309;19;20014;-83
2022/09/29 01:23:31;;;;;;;2.92;2.35;;;;;;;5.28;100.00;96870.22;15306958;19;20078;-86
2022/09/29 01:29:25;;;;;;;3.15;2.85;;;;;;;5.22;100.00;96869.88;15305680;19;20016;-83
2022/09/29 01:35:02;;;;;;;3.30;3.00;;;;;;;5.16;100.00;96881.22;15337925;19;20062;-84
2022/09/29 01:40:35;;;;;;;3.00;2.70;;;;;;;5.11;100.00;96878.22;15336636;19;20023;-82
2022/09/29 01:46:04;;;;;;;2.97;2.78;;;;;;;5.06;100.00;96891.22;15288970;19;20819;-83
2022/09/29 01:51:39;;;;;;;3.85;3.30;;;;;;;5.02;100.00;96889.84;15296693;19;20034;-82
2022/09/29 01:57:09;;;;;;;3.70;3.40;;;;;;;5.01;100.00;96898.88;15297466;19;20015;-83
2022/09/29 02:02:40;;;;;;;3.45;3.00;;;;;;;4.96;100.00;96893.19;15298738;19;20015;-83
2022/09/29 02:08:22;;;;;;;4.57;3.08;;;;;;;4.94;100.00;96896.88;15298869;19;20035;-84
2022/09/29 02:13:54;;;;;;;2.63;2.43;;;;;;;4.96;100.00;96904.69;15297829;19;20084;-83
2022/09/29 02:19:24;;;;;;;2.70;2.50;;;;;;;4.97;100.00;96901.03;15306593;19;20066;-84
2022/09/29 02:24:57;;;;;;;3.35;2.80;;;;;;;5.01;100.00;96912.22;15295332;19;20019;-84
2022/09/29 02:30:22;;;;;;;2.90;2.70;;;;;;;5.03;100.00;96913.72;15301741;19;20022;-83
2022/09/29 02:35:56;;;;;;;4.18;2.78;;;;;;;5.09;100.00;96909.56;15293361;19;20027;-83
2022/09/29 02:41:36;;;;;;;4.03;2.90;;;;;;;5.13;100.00;96910.91;15297099;19;20014;-83
2022/09/29 02:47:20;;;;;;;3.10;2.70;;;;;;;5.18;100.00;96913.94;15293615;19;20368;-83
2022/09/29 02:52:57;;;;;;;3.35;3.05;;;;;;;5.23;100.00;96919.59;15299605;19;20034;-81
2022/09/29 02:58:33;;;;;;;4.45;2.90;;;;;;;5.27;100.00;96919.25;15304079;19;20021;-83
2022/09/29 03:04:07;;;;;;;3.55;3.03;;;;;;;5.32;100.00;96915.09;15367808;19;20022;-85
2022/09/29 03:09:38;;;;;;;3.22;2.80;;;;;;;5.37;100.00;96922.63;15313638;19;20022;-84
2022/09/29 03:15:08;;;;;;;5.63;2.93;;;;;;;5.42;100.00;96917.63;15291697;19;20013;-81
2022/09/29 03:20:34;;;;;;;3.20;2.65;;;;;;;5.45;100.00;96914.63;15292168;19;20015;-84
2022/09/29 03:26:00;;;;;;;3.85;3.20;;;;;;;5.47;100.00;96915.28;15287617;19;20006;-85
2022/09/29 03:31:27;;;;;;;3.85;3.10;;;;;;;5.48;100.00;96919.63;15292287;19;20010;-82
2022/09/29 03:36:52;;;;;;;3.35;2.92;;;;;;;5.48;100.00;96916.13;15286999;19;20015;-81
2022/09/29 03:42:16;;;;;;;2.70;2.50;;;;;;;5.47;100.00;96923.28;15295721;19;20022;-81
2022/09/29 03:47:43;;;;;;;3.17;2.90;;;;;;;5.48;100.00;96918.78;15292575;19;20015;-82
2022/09/29 03:53:08;;;;;;;3.10;2.90;;;;;;;5.46;100.00;96920.78;15288403;19;20030;-81
2022/09/29 03:58:37;;;;;;;3.25;2.95;;;;;;;5.44;100.00;96934.31;15291571;19;20017;-81
2022/09/29 04:04:05;;;;;;;3.28;2.90;;;;;;;5.43;100.00;96923.78;15286814;19;20363;-83
2022/09/29 04:09:37;;;;;;;3.40;2.85;;;;;;;5.44;100.00;96934.31;15311140;19;20011;-81
2022/09/29 04:15:02;;;;;;;3.72;3.08;;;;;;;5.41;100.00;96934.66;15309436;19;20024;-81
2022/09/29 04:20:30;;;;;;;4.07;3.33;;;;;;;5.40;100.00;96944.50;15306710;19;20479;-82
2022/09/29 04:25:55;;;;;;;3.50;3.20;;;;;;;5.44;100.00;96953.03;15307711;19;20021;-80
2022/09/29 04:31:19;;;;;;;3.70;3.30;;;;;;;5.47;100.00;96943.84;15311392;19;20358;-81
2022/09/29 04:36:46;;;;;;;3.42;3.13;;;;;;;5.50;100.00;96946.19;15303772;19;20078;-81
2022/09/29 04:42:12;;;;;;;3.47;3.17;;;;;;;5.51;100.00;96938.00;15314565;19;20035;-79
2022/09/29 04:47:37;;;;;;;3.30;3.00;;;;;;;5.57;100.00;96949.03;15311747;19;20045;-79
2022/09/29 04:53:04;;;;;;;3.45;3.15;;;;;;;5.57;100.00;96944.50;15320695;19;20083;-80
2022/09/29 04:58:29;;;;;;;3.85;3.08;;;;;;;5.57;100.00;96949.03;15367357;19;20003;-79
2022/09/29 05:03:54;;;;;;;4.35;3.20;;;;;;;5.57;100.00;96954.38;15301051;19;20018;-79
2022/09/29 05:09:28;;;;;;;4.05;3.00;;;;;;;5.59;100.00;96955.88;15301368;19;20071;-78
2022/09/29 05:14:53;;;;;;;3.28;2.97;;;;;;;5.62;100.00;96958.22;15297065;19;20032;-77
2022/09/29 05:20:17;;;;;;;3.30;3.00;;;;;;;5.64;100.00;96960.69;15306429;19;20054;-79
2022/09/29 05:25:45;;;;;;;2.72;2.53;;;;;;;5.71;100.00;96961.69;15311488;19;20054;-82
2022/09/29 05:31:10;;;;;;;4.38;3.22;;;;;;;5.76;100.00;96963.91;15317772;19;20109;-81
2022/09/29 05:36:35;;;;;;;3.40;3.10;;;;;;;5.80;100.00;96960.72;15312358;19;20026;-81
2022/09/29 05:42:04;;;;;;;4.90;3.15;;;;;;;5.83;100.00;96957.69;15310603;19;20019;-81
2022/09/29 05:47:28;;;;;;;3.50;3.13;;;;;;;5.88;100.00;96959.03;15311296;19;20018;-79
2022/09/29 05:52:53;;;;;;;4.10;3.13;;;;;;;5.93;100.00;96965.56;15316494;19;20014;-81
2022/09/29 05:58:20;;;;;;;5.00;3.10;;;;;;;5.98;100.00;96965.03;15311228;19;20530;-81
2022/09/29 06:03:45;;;;;;;5.15;3.33;;;;;;;6.03;100.00;96967.25;15322272;19;20014;-82
2022/09/29 06:09:17;;;;;;;4.40;3.25;;;;;;;6.07;100.00;96979.28;15319695;19;20070;-81
2022/09/29 06:14:45;;;;;;;4.57;3.15;;;;;;;6.11;100.00;96970.75;15310248;19;20066;-81
2022/09/29 06:20:10;;;;;;;3.50;3.20;;;;;;;6.23;100.00;96970.41;15313372;19;20018;-79
2022/09/29 06:25:36;;;;;;;3.07;2.67;;;;;;;6.37;100.00;96983.09;14799163;19;10000598;-81
2022/09/29 06:31:06;;;;;;;4.05;2.92;;;;;;;6.44;100.00;96976.03;15305866;19;20770;-79
2022/09/29 06:42:11;;;;;;;3.20;2.50;;;;;;;6.59;100.00;96986.03;15308807;19;20042;-79
2022/09/29 06:47:39;;;;;;;3.70;3.00;;;;;;;6.68;100.00;96985.00;15307150;19;20006;-78
2022/09/29 06:53:03;;;;;;;3.22;2.80;;;;;;;6.78;100.00;96984.81;15309165;19;20025;-80
2022/09/29 06:58:28;;;;;;;3.08;2.78;;;;;;;6.87;100.00;96983.75;15305607;19;20018;-79
2022/09/29 07:03:55;;;;;;;3.28;2.97;;;;;;;6.94;100.00;96984.72;15307551;19;20034;-79
2022/09/29 07:09:26;;;;;;;2.95;2.60;;;;;;;7.02;100.00;96985.72;15310841;19;20027;-80
2022/09/29 07:14:51;;;;;;;2.80;2.60;;;;;;;7.13;100.00;96988.00;15315870;19;20011;-80
2022/09/29 07:20:18;;;;;;;3.72;2.53;;;;;;;7.22;100.00;96986.13;15313367;19;20015;-78
2022/09/29 07:25:43;;;;;;;3.65;2.55;;;;;;;7.27;100.00;96989.09;15299633;19;20555;-79
2022/09/29 07:31:10;;;;;;;2.30;2.10;;;;;;;7.40;100.00;96991.22;15315692;19;20007;-78
2022/09/29 07:36:37;;;;;;;2.28;2.10;;;;;;;7.57;100.00;96986.59;15304932;19;20010;-77
2022/09/29 07:42:02;;;;;;;2.58;1.92;;;;;;;7.70;100.00;96984.13;15347419;19;20011;-80
2022/09/29 07:47:37;;;;;;;2.67;1.70;;;;;;;7.86;100.00;96987.72;15326024;19;20772;-79
2022/09/29 07:53:04;;;;;;;1.50;1.40;;;;;;;7.95;100.00;96975.91;15318981;19;20022;-81
2022/09/29 07:58:29;;;;;;;2.55;1.75;;;;;;;8.15;100.00;96986.16;15316476;19;20074;-80
2022/09/29 08:03:59;;;;;;;3.20;2.33;;;;;;;8.31;100.00;96980.63;15318755;19;20022;-82
2022/09/29 08:09:38;;;;;;;1.67;1.58;;;;;;;8.56;100.00;96983.09;15304518;19;20017;-78
2022/09/29 08:15:05;;;;;;;2.35;1.73;;;;;;;8.74;100.00;96977.34;15358022;19;20003;-79
2022/09/29 08:20:30;;;;;;;2.20;1.55;;;;;;;8.93;100.00;96989.38;15287571;19;20013;-78
2022/09/29 08:26:08;;;;;;;2.67;1.55;;;;;;;9.12;100.00;96997.06;15286265;19;20032;-79
2022/09/29 08:31:36;;;;;;;1.48;1.30;;;;;;;9.33;100.00;96988.22;15290524;19;20006;-82
2022/09/29 08:37:00;;;;;;;2.30;1.40;;;;;;;9.45;100.00;96996.63;15286844;19;20021;-81
2022/09/29 08:42:33;;;;;;;1.40;1.30;;;;;;;9.61;100.00;96991.03;15288638;19;20396;-82
2022/09/29 08:48:15;;;;;;;1.33;1.20;;;;;;;9.68;100.00;96991.09;15289974;19;20011;-80
2022/09/29 08:53:44;;;;;;;1.80;1.38;;;;;;;9.89;100.00;97003.69;15305810;19;20379;-79
2022/09/29 08:59:20;;;;;;;2.85;1.30;;;;;;;10.07;100.00;97000.56;15307920;19;20018;-80
2022/09/29 09:05:20;;;;;;;1.75;1.50;;;;;;;10.22;100.00;97013.09;15303582;19;20010;-78
2022/09/29 09:10:53;;;;;;;2.08;1.35;;;;;;;10.38;100.00;97012.88;15297892;19;20023;-76
2022/09/29 09:16:29;;;;;;;2.05;1.30;;;;;;;10.53;100.00;97011.94;15297210;19;20050;-76
2022/09/29 09:22:06;;;;;;;2.30;1.35;;;;;;;10.70;100.00;97018.69;15293182;19;20010;-76
2022/09/29 09:27:39;;;;;;;2.08;1.02;;;;;;;11.00;100.00;97012.25;15297076;19;20021;-77
2022/09/29 09:33:08;;;;;;;1.70;1.20;;;;;;;11.28;100.00;97006.78;15294388;19;20014;-76
2022/09/29 09:38:58;;;;;;;2.72;1.00;;;;;;;11.72;100.00;97008.16;15299322;19;20015;-76
2022/09/29 09:44:27;;;;;;;2.35;0.85;;;;;;;12.17;100.00;97004.16;15287814;19;20015;-76
2022/09/29 09:49:55;;;;;;;1.05;0.75;;;;;;;12.31;100.00;97005.78;15293824;19;20086;-76
2022/09/29 09:55:27;;;;;;;1.65;1.10;;;;;;;12.46;100.00;97004.75;15287928;19;20017;-76
2022/09/29 10:00:56;;;;;;;1.20;1.00;;;;;;;12.48;100.00;97000.81;15293995;19;20010;-76
2022/09/29 10:06:20;;;;;;;2.30;1.25;;;;;;;12.52;100.00;97000.41;15282961;19;20278;-76
2022/09/29 10:11:48;;;;;;;1.10;1.00;;;;;;;12.70;100.00;96997.06;15288602;19;20018;-75
2022/09/29 10:17:16;;;;;;;2.38;1.00;;;;;;;13.09;100.00;96998.03;15290747;19;20390;-75
2022/09/29 10:22:41;;;;;;;2.13;0.88;;;;;;;13.33;100.00;96996.47;15296567;19;20025;-77
2022/09/29 10:28:11;;;;;;;3.15;1.10;;;;;;;13.31;100.00;96987.72;15295475;19;20014;-83
2022/09/29 10:33:36;;;;;;;2.28;1.05;;;;;;;13.32;100.00;96994.00;15310339;19;20010;-80
2022/09/29 10:39:02;;;;;;;2.08;1.10;;;;;;;13.36;100.00;97000.59;15303459;19;20045;-82
2022/09/29 10:44:33;;;;;;;1.20;0.90;;;;;;;12.99;100.00;96995.75;15298031;19;20042;-80
2022/09/29 10:50:16;;;;;;;1.25;0.85;;;;;;;12.87;100.00;96998.28;15300995;19;20010;-80
2022/09/29 10:55:51;;;;;;;1.08;0.90;;;;;;;12.86;100.00;97006.59;15293237;19;20042;-79
2022/09/29 11:01:24;;;;;;;2.40;0.88;;;;;;;12.77;100.00;97012.22;15299269;19;20078;-81
2022/09/29 11:06:50;;;;;;;2.10;0.95;;;;;;;12.65;100.00;97016.59;15295015;19;20027;-80
2022/09/29 11:12:35;;;;;;;1.42;0.80;;;;;;;12.47;100.00;97009.13;15292871;19;20018;-80
2022/09/29 11:18:03;;;;;;;2.50;0.80;;;;;;;12.59;100.00;97018.25;15297318;19;20022;-80
2022/09/29 11:23:52;;;;;;;1.60;0.80;;;;;;;12.85;100.00;97019.28;15296395;19;20026;-79
2022/09/29 11:29:32;;;;;;;0.88;0.70;;;;;;;13.02;100.00;97018.81;15295015;19;20432;-78
2022/09/29 11:35:24;;;;;;;1.53;0.90;;;;;;;13.09;100.00;97017.75;15304162;19;20050;-80
2022/09/29 11:40:58;;;;;;;1.67;0.87;;;;;;;13.23;100.00;97032.06;15294724;19;20006;-80
2022/09/29 11:46:37;;;;;;;1.33;0.70;;;;;;;13.28;100.00;97031.44;15300178;19;20018;-80
2022/09/29 11:52:26;;;;;;;2.08;0.80;;;;;;;13.09;100.00;97025.88;15315303;19;20011;-81
2022/09/29 11:58:03;;;;;;;1.20;0.80;;;;;;;13.15;100.00;97026.91;15349255;19;20026;-81
2022/09/29 12:03:40;;;;;;;2.90;0.80;;;;;;;13.10;100.00;97024.00;15289454;19;20043;-81
2022/09/29 12:09:23;;;;;;;1.27;0.60;;;;;;;13.11;100.00;97028.38;15293994;19;20074;-81
2022/09/29 12:15:04;;;;;;;1.90;0.80;;;;;;;13.04;100.00;97031.09;15297684;19;20014;-79
2022/09/29 12:20:52;;;;;;;0.77;0.60;;;;;;;13.15;100.00;97031.50;15351489;19;20006;-79
2022/09/29 12:26:23;;;;;;;1.35;0.80;;;;;;;12.91;100.00;97037.34;15299218;19;20011;-80
2022/09/29 12:31:54;;;;;;;1.58;0.70;;;;;;;12.85;100.00;97038.19;15296722;19;20028;-80
2022/09/29 12:37:25;;;;;;;2.50;0.80;;;;;;;12.67;100.00;97048.81;15302390;19;20023;-81
2022/09/29 12:43:14;;;;;;;1.90;0.80;;;;;;;12.53;100.00;97050.69;15295411;19;20033;-81
2022/09/29 12:48:53;;;;;;;2.10;0.80;;;;;;;12.30;100.00;97068.94;15297763;19;20019;-82
2022/09/29 12:54:27;;;;;;;1.98;0.90;;;;;;;12.00;100.00;97069.31;15296889;19;20022;-81
2022/09/29 13:00:00;;;;;;;1.98;0.80;;;;;;;11.67;100.00;97086.19;15302150;19;20074;-81
2022/09/29 13:05:45;;;;;;;1.55;0.90;;;;;;;11.23;100.00;97117.91;15292588;19;20577;-81
2022/09/29 13:11:34;;;;;;;0.75;0.50;;;;;;;11.13;100.00;97100.41;15298848;19;20034;-84
2022/09/29 13:17:15;;;;;;;1.27;0.60;;;;;;;10.74;100.00;97087.31;15295006;19;20489;-80
2022/09/29 13:23:13;;;;;;;1.30;0.63;;;;;;;10.72;100.00;97078.59;15310937;19;20022;-80
2022/09/29 13:28:41;;;;;;;0.50;0.30;;;;;;;10.66;100.00;97078.53;15306306;19;20018;-81
2022/09/29 13:34:11;;;;;;;0.40;0.30;;;;;;;10.56;100.00;97089.63;15311356;19;20730;-82
2022/09/29 13:39:37;;;;;;;0.60;0.30;;;;;;;10.75;100.00;97088.13;15305907;19;20132;-80
2022/09/29 13:45:25;;;;;;;1.10;0.40;;;;;;;10.85;100.00;97079.72;15295128;19;20042;-81
2022/09/29 13:50:55;;;;;;;0.80;0.50;;;;;;;10.89;100.00;97080.97;15298362;19;20014;-80
2022/09/29 13:56:29;;;;;;;0.47;0.20;;;;;;;11.01;100.00;97084.78;15296530;19;20021;-81
2022/09/29 14:01:54;;;;;;;0.37;0.20;;;;;;;11.10;100.00;97075.53;15298379;19;20019;-82
2022/09/29 14:07:42;;;;;;;0.22;0.20;;;;;;;11.27;100.00;97083.28;15297451;19;20057;-83
2022/09/29 14:13:13;;;;;;;0.57;0.10;;;;;;;11.46;100.00;97089.00;15301567;19;20018;-81
2022/09/29 14:18:43;;;;;;;0.67;0.20;;;;;;;11.76;100.00;97077.91;15301619;19;20013;-83
2022/09/29 14:24:44;;;;;;;0.63;0.20;;;;;;;11.83;100.00;97085.00;15292152;19;20140;-86
2022/09/29 14:30:19;;;;;;;;;;;;;;;11.91;100.00;97075.06;15299475;19;20021;-85
2022/09/29 14:35:46;;;;;;;0.38;0.25;;;;;;;12.06;100.00;97083.00;15290518;19;19950;-82
2022/09/29 14:41:32;;;;;;;0.55;0.20;;;;;;;12.13;100.00;97090.09;15304766;19;20020;-85
2022/09/29 14:53:06;;;;;;;;;;;;;;;11.77;100.00;97090.38;15309150;19;20038;-82
2022/09/29 14:58:51;;;;;;;0.57;0.22;;;;;;;11.66;100.00;97102.56;15297940;19;19942;-80
2022/09/29 15:04:19;;;;;;;0.28;0.20;;;;;;;11.68;100.00;97109.44;15299871;19;20026;-80
2022/09/29 15:09:54;;;;;;;0.20;0.20;;;;;;;11.57;100.00;97118.13;15310676;19;20027;-80
2022/09/29 15:15:37;;;;;;;0.65;0.25;;;;;;;11.43;100.00;97119.06;15300154;19;20038;-80
2022/09/29 15:21:09;;;;;;;0.75;0.30;;;;;;;11.47;100.00;97112.22;15306149;19;20037;-81
2022/09/29 15:26:35;;;;;;;0.53;0.40;;;;;;;11.54;100.00;97129.28;15298948;19;20078;-79
2022/09/29 15:32:24;;;;;;;2.15;0.30;;;;;;;11.55;100.00;97139.03;15316042;19;20027;-80
2022/09/29 15:38:00;;;;;;;2.22;0.30;;;;;;;11.61;100.00;97132.03;15342267;19;20463;-79
2022/09/29 15:43:27;;;;;;;0.45;0.30;;;;;;;11.67;100.00;97148.25;15289958;19;20023;-79
2022/09/29 15:49:14;;;;;;;0.47;0.35;;;;;;;11.72;100.00;97159.25;15289265;19;20021;-80
2022/09/29 15:54:43;;;;;;;0.35;0.35;;;;;;;11.79;100.00;97166.56;15301014;19;20100;-81
2022/09/29 16:00:08;;;;;;;0.40;0.32;;;;;;;11.79;100.00;97178.19;15293256;19;20030;-78
2022/09/29 16:05:40;;;;;;;0.60;0.38;;;;;;;11.76;100.00;97177.75;15306484;19;20535;-79
2022/09/29 16:11:15;;;;;;;0.60;0.30;;;;;;;11.70;100.00;97191.00;15291751;19;20018;-82
2022/09/29 16:16:46;;;;;;;0.55;0.32;;;;;;;11.46;100.00;97208.50;15307333;19;20014;-80
2022/09/29 16:22:14;;;;;;;1.17;0.40;;;;;;;11.46;100.00;97202.28;15320918;19;20046;-80
2022/09/29 16:27:49;;;;;;;0.90;0.30;;;;;;;11.48;100.00;97219.91;15320715;19;20022;-79
2022/09/29 16:33:22;;;;;;;0.85;0.43;;;;;;;11.49;100.00;97223.44;15306191;19;20021;-83
2022/09/29 16:38:57;;;;;;;1.90;0.40;;;;;;;11.43;100.00;97230.44;15311868;19;20010;-83
2022/09/29 16:44:27;;;;;;;1.60;0.40;;;;;;;11.34;100.00;97232.47;15313560;19;20051;-82
2022/09/29 16:49:57;;;;;;;0.77;0.40;;;;;;;11.25;100.00;97234.47;15321437;19;20011;-82
2022/09/29 16:55:29;;;;;;;1.08;0.40;;;;;;;11.14;100.00;97240.41;15359063;19;20018;-82
2022/09/29 17:00:55;;;;;;;2.92;0.60;;;;;;;11.06;100.00;97235.97;15316599;19;20041;-79
2022/09/29 17:06:19;;;;;;;1.75;0.88;;;;;;;10.95;100.00;97244.56;15298151;19;20125;-80
2022/09/29 17:11:54;;;;;;;0.95;0.73;;;;;;;10.81;100.00;97250.84;15301884;19;20039;-79
2022/09/29 17:17:21;;;;;;;1.25;0.80;;;;;;;10.70;100.00;97263.81;15303784;19;20035;-79
2022/09/29 17:22:47;;;;;;;1.20;0.80;;;;;;;10.59;100.00;97267.00;15303692;19;20025;-80
2022/09/29 17:28:18;;;;;;;1.58;0.73;;;;;;;10.44;100.00;97265.16;15307224;19;20110;-82
2022/09/29 17:33:51;;;;;;;1.93;0.70;;;;;;;10.24;100.00;97274.81;15307246;19;20371;-80
2022/09/29 17:39:15;;;;;;;0.68;0.65;;;;;;;10.07;100.00;97280.41;15311012;19;20026;-80
2022/09/29 17:44:43;;;;;;;1.30;0.85;;;;;;;9.97;100.00;97279.84;15305749;19;20035;-81
2022/09/29 17:50:29;;;;;;;1.27;1.00;;;;;;;9.86;100.00;97292.75;15308601;19;20376;-82
2022/09/29 17:56:01;;;;;;;2.50;1.05;;;;;;;9.75;100.00;97297.75;15298422;19;20007;-82
2022/09/29 18:01:32;;;;;;;1.08;0.90;;;;;;;9.62;100.00;97293.00;15305674;19;20044;-83
2022/09/29 18:06:58;;;;;;;2.58;1.20;;;;;;;9.49;100.00;97293.63;15294005;19;20024;-81
2022/09/29 18:12:24;;;;;;;1.88;1.08;;;;;;;9.36;100.00;97281.63;15314195;19;20074;-84
2022/09/29 18:17:51;;;;;;;1.60;1.20;;;;;;;9.27;100.00;97287.25;15299592;19;20025;-81
2022/09/29 18:23:16;;;;;;;3.40;1.20;;;;;;;9.14;100.00;97295.94;15298336;19;20014;-78
2022/09/29 18:28:43;;;;;;;1.70;1.00;;;;;;;9.04;100.00;97309.59;15302440;19;20015;-78
2022/09/29 18:34:16;;;;;;;3.20;1.20;;;;;;;8.88;100.00;97316.75;15303742;19;20149;-80
2022/09/29 18:39:41;;;;;;;1.80;1.30;;;;;;;8.78;100.00;97310.78;15300851;19;20025;-81
2022/09/29 18:45:07;;;;;;;1.13;0.82;;;;;;;8.55;100.00;97308.91;15304742;19;20053;-78
2022/09/29 18:50:38;;;;;;;1.98;0.95;;;;;;;8.45;100.00;97308.25;15299576;19;20026;-80
2022/09/29 18:56:05;;;;;;;2.00;1.10;;;;;;;8.43;100.00;97321.84;15298680;19;20017;-79
2022/09/29 19:01:32;;;;;;;1.10;1.00;;;;;;;8.40;100.00;97322.19;15297885;19;20062;-78
2022/09/29 19:06:59;;;;;;;7.28;5.43;;;;;;;8.31;100.00;97328.63;15309820;19;20039;-79
2022/09/29 19:12:26;;;;;;;7.55;6.15;;;;;;;8.23;100.00;97326.78;15343429;19;20026;-80
2022/09/29 19:17:54;;;;;;;16.50;12.43;;;;;;;8.12;100.00;97349.44;15288886;19;20551;-79
2022/09/29 19:23:25;;;;;;;2.63;2.08;;;;;;;8.05;100.00;97367.25;15292681;19;20009;-81
2022/09/29 19:28:51;;;;;;;2.58;1.40;;;;;;;7.96;100.00;97371.78;15293487;19;20024;-79
2022/09/29 19:34:16;;;;;;;1.77;1.48;;;;;;;7.96;100.00;97387.88;15284062;19;20050;-79
2022/09/29 19:39:43;;;;;;;2.80;1.83;;;;;;;7.95;100.00;97394.25;15284748;19;20438;-78
2022/09/29 19:45:08;;;;;;;3.22;2.30;;;;;;;7.96;100.00;97398.59;15284050;19;20020;-80
2022/09/29 19:56:12;;;;;;;2.47;1.97;;;;;;;7.97;100.00;97394.09;15282966;19;20027;-79
2022/09/29 20:01:36;;;;;;;2.65;1.80;;;;;;;7.98;100.00;97393.91;15287339;19;20011;-81
2022/09/29 20:07:02;;;;;;;2.60;1.70;;;;;;;8.04;100.00;97407.66;15302826;19;20031;-80
2022/09/29 20:12:37;;;;;;;2.08;1.45;;;;;;;8.10;100.00;97406.97;15281768;19;20022;-80
2022/09/29 20:18:01;;;;;;;1.35;1.00;;;;;;;8.26;100.00;97401.59;15302401;19;20078;-79
2022/09/29 20:23:26;;;;;;;1.88;1.40;;;;;;;8.30;100.00;97408.25;15286211;19;20014;-81
2022/09/29 20:28:57;;;;;;;1.58;1.25;;;;;;;8.30;100.00;97413.63;15286488;19;20022;-81
2022/09/29 20:34:23;;;;;;;2.97;1.60;;;;;;;8.28;100.00;97418.34;15283672;19;20018;-79
2022/09/29 20:39:49;;;;;;;5.20;2.00;;;;;;;8.27;100.00;97432.78;15293132;19;20015;-79
2022/09/29 20:45:18;;;;;;;1.98;1.73;;;;;;;8.25;100.00;97437.47;15282722;19;20015;-78
2022/09/29 20:50:46;;;;;;;1.85;1.58;;;;;;;8.25;100.00;97442.84;15296482;19;20010;-79
2022/09/29 20:56:11;;;;;;;1.60;1.50;;;;;;;8.23;100.00;97446.72;15296066;19;20036;-79
2022/09/29 21:01:39;;;;;;;2.08;1.60;;;;;;;8.17;100.00;97449.06;15300009;19;20007;-79
2022/09/29 21:07:34;;;;;;;1.40;1.30;;;;;;;8.15;100.00;97452.91;15298989;19;20014;-78
2022/09/29 21:12:55;;;;;;;1.73;1.50;;;;;;;8.10;100.00;97456.13;15293338;19;20020;-78
2022/09/29 21:18:22;;;;;;;2.63;1.53;;;;;;;8.08;100.00;97463.50;15300460;19;20015;-78
2022/09/29 21:23:49;;;;;;;3.20;1.70;;;;;;;7.97;100.00;97478.06;15305417;19;20011;-78
2022/09/29 21:29:17;;;;;;;3.55;1.67;;;;;;;7.91;100.00;97489.47;15366419;19;20014;-78
2022/09/29 21:34:45;;;;;;;2.10;1.67;;;;;;;7.82;100.00;97477.09;15311197;19;20027;-79
2022/09/29 21:40:10;;;;;;;2.42;1.80;;;;;;;7.75;100.00;97478.72;15298720;19;20006;-79
2022/09/29 21:45:35;;;;;;;4.22;1.80;;;;;;;7.67;100.00;97482.25;15307765;19;20057;-79
2022/09/29 21:51:08;;;;;;;2.08;1.90;;;;;;;7.60;100.00;97479.38;15299457;19;20082;-79
2022/09/29 21:56:34;;;;;;;2.50;1.70;;;;;;;7.54;100.00;97488.09;15296675;19;20031;-80
2022/09/29 22:01:58;;;;;;;2.22;1.80;;;;;;;7.47;100.00;97484.38;15299988;19;20022;-78
2022/09/29 22:07:26;;;;;;;2.38;1.85;;;;;;;7.40;100.00;97492.28;15292829;19;20011;-78
2022/09/29 22:12:51;;;;;;;2.63;2.00;;;;;;;7.35;100.00;97506.13;15300871;19;20022;-77
2022/09/29 22:18:15;;;;;;;4.00;1.90;;;;;;;7.30;100.00;97503.13;15301148;19;20017;-78
2022/09/29 22:23:54;;;;;;;2.05;1.80;;;;;;;7.26;100.00;97512.47;15299788;19;20026;-78
2022/09/29 22:29:21;;;;;;;2.60;1.98;;;;;;;7.23;100.00;97512.81;15309723;19;20015;-78
2022/09/29 22:34:45;;;;;;;2.40;1.80;;;;;;;7.19;100.00;97528.34;15361160;19;20018;-78
2022/09/29 22:40:14;;;;;;;2.70;1.77;;;;;;;7.17;100.00;97524.16;15296988;19;20018;-78
2022/09/29 22:45:40;;;;;;;2.72;1.90;;;;;;;7.13;100.00;97526.34;15295741;19;20025;-79
2022/09/29 22:51:04;;;;;;;2.40;1.95;;;;;;;7.08;100.00;97516.09;15300525;19;20157;-79
2022/09/29 22:56:32;;;;;;;2.70;1.80;;;;;;;7.05;100.00;97521.78;15289596;19;20486;-78
2022/09/29 23:01:57;;;;;;;3.42;1.90;;;;;;;6.98;100.00;97534.16;15296847;19;20010;-79
2022/09/29 23:07:22;;;;;;;3.50;1.95;;;;;;;6.91;100.00;97530.41;15299463;19;20014;-79
2022/09/29 23:12:49;;;;;;;3.33;2.00;;;;;;;6.81;100.00;97537.72;15285260;19;20021;-79
2022/09/29 23:18:14;;;;;;;2.10;1.90;;;;;;;6.75;100.00;97547.22;15289581;19;20023;-79
2022/09/29 23:23:39;;;;;;;2.70;2.00;;;;;;;6.70;100.00;97549.56;15294178;19;20014;-79
2022/09/29 23:29:06;;;;;;;5.22;2.60;;;;;;;6.68;100.00;97551.56;15288201;19;20834;-79
2022/09/29 23:34:31;;;;;;;4.20;2.85;;;;;;;6.68;100.00;97559.59;15289919;19;20010;-81
2022/09/29 23:39:55;;;;;;;3.47;2.42;;;;;;;6.66;100.00;97567.75;15294889;19;20099;-81
2022/09/29 23:45:23;;;;;;;4.05;2.50;;;;;;;6.66;100.00;97573.09;15291712;19;20086;-79
2022/09/29 23:50:47;;;;;;;3.58;2.45;;;;;;;6.67;100.00;97560.56;15292915;19;20019;-79
2022/09/29 23:56:13;;;;;;;3.03;2.40;;;;;;;6.62;100.00;97558.38;15280861;19;20484;-78
